createdAt,value
2022-08-14T00:02:31.455Z,97955.91
2022-08-14T00:05:01.534Z,97956.00
2022-08-14T00:07:31.400Z,97946.34
2022-08-14T00:10:49.296Z,97950.59
2022-08-14T00:12:57.095Z,97942.03
2022-08-14T00:15:43.722Z,97941.25
2022-08-14T00:18:30.798Z,97929.47
2022-08-14T00:21:10.990Z,97911.41
2022-08-14T00:23:41.681Z,97905.88
2022-08-14T00:26:21.766Z,97911.75
2022-08-14T00:28:56.544Z,97898.31
2022-08-14T00:31:35.050Z,97897.22
2022-08-14T00:34:36.989Z,97897.13
2022-08-14T00:37:05.813Z,97897.88
2022-08-14T00:39:37.577Z,97892.88
2022-08-14T00:42:21.066Z,97888.22
2022-08-14T00:44:55.529Z,97887.13
2022-08-14T00:47:26.976Z,97882.47
2022-08-14T00:49:59.103Z,97880.66
2022-08-14T00:52:29.475Z,97872.91
2022-08-14T00:54:59.230Z,97867.31
2022-08-14T00:57:34.381Z,97869.56
2022-08-14T01:00:34.122Z,97872.09
2022-08-14T01:03:01.240Z,97875.97
2022-08-14T01:05:50.679Z,97872.25
2022-08-14T01:08:52.066Z,97869.47
2022-08-14T01:11:19.016Z,97870.59
2022-08-14T01:13:55.669Z,97874.59
2022-08-14T01:16:31.479Z,97867.94
2022-08-14T01:19:14.019Z,97871.25
2022-08-14T01:21:52.899Z,97882.31
2022-08-14T01:24:30.569Z,97881.31
2022-08-14T01:27:05.027Z,97871.25
2022-08-14T01:30:03.453Z,97876.69
2022-08-14T01:32:29.987Z,97877.91
2022-08-14T01:35:19.270Z,97870.53
2022-08-14T01:37:56.046Z,97877.47
2022-08-14T01:40:36.375Z,97879.13
2022-08-14T01:43:18.704Z,97867.00
2022-08-14T01:46:06.204Z,97862.72
2022-08-14T01:48:37.971Z,97868.00
2022-08-14T01:51:19.013Z,97855.03
2022-08-14T01:53:56.392Z,97864.63
2022-08-14T01:56:37.310Z,97852.88
2022-08-14T01:59:18.127Z,97851.09
2022-08-14T02:01:58.863Z,97850.13
2022-08-14T02:04:56.270Z,97840.41
2022-08-14T02:07:27.298Z,97836.06
2022-08-14T02:10:16.635Z,97832.28
2022-08-14T02:12:57.057Z,97822.91
2022-08-14T02:15:28.125Z,97816.94
2022-08-14T02:18:01.746Z,97817.03
2022-08-14T02:20:34.146Z,97816.59
2022-08-14T02:23:06.006Z,97830.97
2022-08-14T02:25:40.844Z,97831.81
2022-08-14T02:28:25.512Z,97841.16
2022-08-14T02:31:02.330Z,97837.09
2022-08-14T02:33:33.870Z,97839.09
2022-08-14T02:37:03.603Z,97831.66
2022-08-14T02:39:00.152Z,97831.81
2022-08-14T02:41:36.654Z,97832.25
2022-08-14T02:44:11.983Z,97825.41
2022-08-14T02:46:44.940Z,97818.34
2022-08-14T02:49:33.866Z,97821.63
2022-08-14T02:52:04.314Z,97803.31
2022-08-14T02:54:54.036Z,97790.72
2022-08-14T02:57:40.617Z,97782.06
2022-08-14T03:00:18.639Z,97790.72
2022-08-14T03:02:58.563Z,97788.81
2022-08-14T03:05:35.912Z,97777.75
2022-08-14T03:08:11.267Z,97778.28
2022-08-14T03:10:41.624Z,97778.78
2022-08-14T03:13:21.209Z,97775.50
2022-08-14T03:15:56.286Z,97776.19
2022-08-14T03:18:31.246Z,97778.19
2022-08-14T03:21:03.280Z,97763.50
2022-08-14T03:23:36.346Z,97768.97
2022-08-14T03:26:12.964Z,97760.47
2022-08-14T03:28:52.966Z,97764.09
2022-08-14T03:31:27.860Z,97767.72
2022-08-14T03:34:00.071Z,97768.34
2022-08-14T03:39:08.487Z,97765.84
2022-08-14T03:39:24.377Z,97758.22
2022-08-14T03:41:59.905Z,97752.63
2022-08-14T03:45:19.170Z,97757.28
2022-08-14T03:47:46.070Z,97754.50
2022-08-14T03:50:27.477Z,97743.75
2022-08-14T03:53:01.121Z,97748.69
2022-08-14T03:55:31.406Z,97750.75
2022-08-14T03:58:01.803Z,97749.22
2022-08-14T04:00:43.904Z,97756.28
2022-08-14T04:03:24.278Z,97747.72
2022-08-14T04:05:54.158Z,97744.69
2022-08-14T04:08:30.817Z,97746.47
2022-08-14T04:11:02.895Z,97738.06
2022-08-14T04:13:41.077Z,97739.22
2022-08-14T04:16:16.696Z,97733.72
2022-08-14T04:18:48.176Z,97737.28
2022-08-14T04:21:18.878Z,97745.94
2022-08-14T04:23:57.245Z,97735.25
2022-08-14T04:26:42.231Z,97740.94
2022-08-14T04:29:15.044Z,97739.13
2022-08-14T04:33:00.313Z,97733.25
2022-08-14T04:34:41.868Z,97733.41
2022-08-14T04:37:25.267Z,97729.09
2022-08-14T04:40:09.354Z,97729.22
2022-08-14T04:42:53.225Z,97720.47
2022-08-14T04:45:24.707Z,97731.22
2022-08-14T04:48:09.980Z,97723.66
2022-08-14T04:50:44.448Z,97725.63
2022-08-14T04:53:19.043Z,97722.94
2022-08-14T04:55:54.210Z,97726.56
2022-08-14T04:58:32.829Z,97731.31
2022-08-14T05:01:06.319Z,97744.44
2022-08-14T05:03:45.635Z,97744.44
2022-08-14T05:06:38.454Z,97747.28
2022-08-14T05:09:07.113Z,97749.91
2022-08-14T05:11:40.366Z,97748.22
2022-08-14T05:14:17.149Z,97751.09
2022-08-14T05:17:02.038Z,97753.13
2022-08-14T05:19:44.207Z,97747.25
2022-08-14T05:22:27.105Z,97750.22
2022-08-14T05:24:58.032Z,97748.13
2022-08-14T05:27:31.054Z,97737.31
2022-08-14T05:30:01.321Z,97739.69
2022-08-14T05:32:31.737Z,97743.38
2022-08-14T05:35:04.212Z,97739.66
2022-08-14T05:37:34.391Z,97747.44
2022-08-14T05:40:04.170Z,97749.94
2022-08-14T05:42:34.573Z,97747.78
2022-08-14T05:45:11.315Z,97746.16
2022-08-14T05:47:44.587Z,97737.09
2022-08-14T05:50:23.117Z,97732.53
2022-08-14T05:52:54.221Z,97730.06
2022-08-14T05:55:25.055Z,97726.50
2022-08-14T05:57:59.697Z,97728.66
2022-08-14T06:00:38.620Z,97730.56
2022-08-14T06:03:10.729Z,97733.94
2022-08-14T06:05:43.793Z,97727.59
2022-08-14T06:08:36.701Z,97729.00
2022-08-14T06:11:20.103Z,97727.06
2022-08-14T06:13:50.349Z,97726.22
2022-08-14T06:16:21.880Z,97722.03
2022-08-14T06:18:53.301Z,97727.09
2022-08-14T06:21:26.235Z,97725.44
2022-08-14T06:23:56.007Z,97731.31
2022-08-14T06:26:30.018Z,97723.34
2022-08-14T06:29:00.418Z,97718.94
2022-08-14T06:31:30.209Z,97706.66
2022-08-14T06:35:09.526Z,97712.66
2022-08-14T06:36:53.807Z,97705.66
2022-08-14T06:39:37.406Z,97696.56
2022-08-14T06:42:08.078Z,97691.84
2022-08-14T06:44:57.850Z,97686.16
2022-08-14T06:47:28.172Z,97689.53
2022-08-14T06:49:58.752Z,97690.38
2022-08-14T06:52:31.122Z,97678.06
2022-08-14T06:55:01.538Z,97676.50
2022-08-14T06:57:39.245Z,97666.81
2022-08-14T07:00:22.331Z,97668.53
2022-08-14T07:03:12.188Z,97670.72
2022-08-14T07:05:55.710Z,97674.94
2022-08-14T07:08:33.057Z,97673.16
2022-08-14T07:11:04.412Z,97671.84
2022-08-14T07:13:35.273Z,97672.38
2022-08-14T07:16:06.354Z,97661.91
2022-08-14T07:18:37.661Z,97661.53
2022-08-14T07:21:12.194Z,97656.38
2022-08-14T07:23:44.973Z,97652.56
2022-08-14T07:26:16.682Z,97657.34
2022-08-14T07:28:47.079Z,97650.56
2022-08-14T07:31:17.799Z,97650.47
2022-08-14T07:33:50.721Z,97648.78
2022-08-14T07:36:27.022Z,97651.66
2022-08-14T07:39:12.472Z,97656.28
2022-08-14T07:41:44.544Z,97646.72
2022-08-14T07:44:32.332Z,97659.78
2022-08-14T07:47:04.203Z,97664.91
2022-08-14T07:49:35.286Z,97668.03
2022-08-14T07:52:06.421Z,97668.00
2022-08-14T07:54:40.919Z,97663.94
2022-08-14T07:57:22.313Z,97657.28
2022-08-14T07:59:54.875Z,97668.56
2022-08-14T08:02:26.358Z,97666.47
2022-08-14T08:04:58.879Z,97668.53
2022-08-14T08:07:33.582Z,97673.41
2022-08-14T08:10:45.984Z,97670.06
2022-08-14T08:13:24.316Z,97671.63
2022-08-14T08:15:57.289Z,97678.00
2022-08-14T08:18:29.581Z,97666.66
2022-08-14T08:21:01.158Z,97655.41
2022-08-14T08:23:39.938Z,97654.41
2022-08-14T08:26:13.474Z,97644.50
2022-08-14T08:28:44.247Z,97650.84
2022-08-14T08:31:15.105Z,97641.44
2022-08-14T08:33:49.513Z,97648.59
2022-08-14T08:36:19.621Z,97633.50
2022-08-14T08:39:15.206Z,97637.38
2022-08-14T08:41:50.500Z,97631.97
2022-08-14T08:44:32.678Z,97639.41
2022-08-14T08:47:06.573Z,97642.47
2022-08-14T08:49:43.053Z,97635.06
2022-08-14T08:52:25.359Z,97631.19
2022-08-14T08:54:59.154Z,97627.63
2022-08-14T08:57:37.562Z,97637.09
2022-08-14T09:00:27.037Z,97629.94
2022-08-14T09:03:04.026Z,97630.22
2022-08-14T09:05:35.485Z,97628.94
2022-08-14T09:08:30.408Z,97627.41
2022-08-14T09:11:18.741Z,97616.09
2022-08-14T09:13:55.103Z,97613.34
2022-08-14T09:16:26.634Z,97601.84
2022-08-14T09:18:57.532Z,97601.03
2022-08-14T09:21:31.264Z,97604.66
2022-08-14T09:24:30.218Z,97601.31
2022-08-14T09:26:53.400Z,97587.22
2022-08-14T09:29:28.958Z,97595.16
2022-08-14T09:32:10.199Z,97599.28
2022-08-14T09:35:08.506Z,97591.81
2022-08-14T09:37:46.789Z,97591.81
2022-08-14T09:40:29.356Z,97601.28
2022-08-14T09:43:10.484Z,97592.81
2022-08-14T09:45:53.201Z,97595.31
2022-08-14T09:48:29.937Z,97596.00
2022-08-14T09:54:12.693Z,97595.22
2022-08-14T09:56:56.922Z,97582.16
2022-08-14T09:59:33.536Z,97584.75
2022-08-14T10:02:20.235Z,97578.50
2022-08-14T10:05:01.666Z,97583.94
2022-08-14T10:07:36.613Z,97572.00
2022-08-14T10:10:23.922Z,97570.06
2022-08-14T10:12:54.747Z,97569.63
2022-08-14T10:15:30.668Z,97568.84
2022-08-14T10:18:17.225Z,97561.38
2022-08-14T10:20:57.791Z,97546.31
2022-08-14T10:23:33.724Z,97541.47
2022-08-14T10:26:08.158Z,97539.63
2022-08-14T10:29:14.041Z,97537.16
2022-08-14T10:31:40.308Z,97521.81
2022-08-14T10:34:29.004Z,97524.94
2022-08-14T10:37:14.174Z,97509.44
2022-08-14T10:40:01.863Z,97500.06
2022-08-14T10:42:40.422Z,97486.03
2022-08-14T10:45:26.039Z,97483.72
2022-08-14T10:48:09.627Z,97489.44
2022-08-14T10:50:51.722Z,97495.59
2022-08-14T10:53:40.409Z,97495.91
2022-08-14T10:56:21.861Z,97490.06
2022-08-14T10:59:04.797Z,97476.16
2022-08-14T11:01:40.893Z,97484.41
2022-08-14T11:04:30.335Z,97467.34
2022-08-14T11:07:05.805Z,97472.84
2022-08-14T11:09:36.092Z,97476.72
2022-08-14T11:12:36.381Z,97474.13
2022-08-14T11:15:03.061Z,97460.31
2022-08-14T11:17:35.013Z,97469.91
2022-08-14T11:20:14.058Z,97482.00
2022-08-14T11:22:55.864Z,97468.91
2022-08-14T11:25:36.749Z,97469.84
2022-08-14T11:28:19.136Z,97468.66
2022-08-14T11:30:54.368Z,97481.84
2022-08-14T11:33:31.285Z,97467.03
2022-08-14T11:36:17.251Z,97472.34
2022-08-14T11:38:51.447Z,97460.69
2022-08-14T11:41:27.279Z,97463.31
2022-08-14T11:43:58.372Z,97457.91
2022-08-14T11:46:30.738Z,97468.16
2022-08-14T11:49:09.562Z,97465.28
2022-08-14T11:51:52.946Z,97454.22
2022-08-14T11:54:35.041Z,97463.88
2022-08-14T11:57:05.901Z,97463.78
2022-08-14T11:59:38.453Z,97463.78
2022-08-14T12:03:01.573Z,97456.81
2022-08-14T12:05:09.230Z,97445.72
2022-08-14T12:07:42.889Z,97437.69
2022-08-14T12:10:27.112Z,97445.81
2022-08-14T12:13:17.946Z,97432.97
2022-08-14T12:15:51.423Z,97421.66
2022-08-14T12:18:32.659Z,97418.75
2022-08-14T12:21:15.747Z,97417.22
2022-08-14T12:23:51.222Z,97419.41
2022-08-14T12:26:39.680Z,97402.53
2022-08-14T12:29:13.266Z,97406.13
2022-08-14T12:31:47.044Z,97410.56
2022-08-14T12:34:22.849Z,97400.47
2022-08-14T12:37:06.033Z,97393.59
2022-08-14T12:39:40.253Z,97390.22
2022-08-14T12:42:34.638Z,97399.06
2022-08-14T12:45:07.115Z,97391.97
2022-08-14T12:47:38.475Z,97396.44
2022-08-14T12:50:09.765Z,97379.25
2022-08-14T12:52:54.085Z,97394.66
2022-08-14T12:56:18.391Z,97378.66
2022-08-14T12:58:36.226Z,97378.38
2022-08-14T13:01:22.240Z,97378.28
2022-08-14T13:03:52.878Z,97373.69
2022-08-14T13:06:25.119Z,97366.72
2022-08-14T13:09:00.154Z,97370.88
2022-08-14T13:11:35.031Z,97367.16
2022-08-14T13:14:07.556Z,97356.81
2022-08-14T13:16:50.175Z,97347.28
2022-08-14T13:19:21.006Z,97343.38
2022-08-14T13:22:04.964Z,97339.13
2022-08-14T13:24:37.508Z,97336.75
2022-08-14T13:27:10.046Z,97332.25
2022-08-14T13:29:46.881Z,97333.78
2022-08-14T13:32:17.961Z,97332.78
2022-08-14T13:34:52.683Z,97333.91
2022-08-14T13:37:22.957Z,97327.78
2022-08-14T13:39:56.373Z,97330.09
2022-08-14T13:42:30.550Z,97318.22
2022-08-14T13:45:06.631Z,97308.00
2022-08-14T13:47:36.409Z,97324.31
2022-08-14T13:50:10.855Z,97304.09
2022-08-14T13:52:49.208Z,97309.00
2022-08-14T13:55:25.851Z,97302.69
2022-08-14T13:58:03.311Z,97299.97
2022-08-14T14:00:52.854Z,97295.41
2022-08-14T14:03:26.159Z,97286.94
2022-08-14T14:06:00.999Z,97281.19
2022-08-14T14:08:45.675Z,97278.25
2022-08-14T14:11:19.648Z,97273.69
2022-08-14T14:13:51.138Z,97271.59
2022-08-14T14:16:30.777Z,97271.25
2022-08-14T14:19:09.337Z,97265.19
2022-08-14T14:21:41.984Z,97263.91
2022-08-14T14:24:15.356Z,97262.16
2022-08-14T14:26:50.210Z,97266.69
2022-08-14T14:29:26.366Z,97262.88
2022-08-14T14:32:01.185Z,97264.94
2022-08-14T14:34:34.300Z,97252.53
2022-08-14T14:37:06.545Z,97260.69
2022-08-14T14:40:50.528Z,97261.03
2022-08-14T14:42:32.450Z,97253.22
2022-08-14T14:45:15.513Z,97241.81
2022-08-14T14:47:51.752Z,97244.34
2022-08-14T14:50:29.384Z,97249.34
2022-08-14T14:53:12.245Z,97249.34
2022-08-14T14:56:47.912Z,97243.47
2022-08-14T14:58:35.393Z,97244.19
2022-08-14T15:01:08.695Z,97241.66
2022-08-14T15:03:45.778Z,97241.66
2022-08-14T15:06:17.557Z,97236.25
2022-08-14T15:08:55.999Z,97234.63
2022-08-14T15:11:30.377Z,97238.56
2022-08-14T15:14:02.182Z,97227.03
2022-08-14T15:16:51.995Z,97223.22
2022-08-14T15:19:25.501Z,97221.72
2022-08-14T15:21:56.498Z,97223.97
2022-08-14T15:24:26.990Z,97222.06
2022-08-14T15:26:58.506Z,97216.09
2022-08-14T15:29:29.279Z,97221.06
2022-08-14T15:32:01.501Z,97225.97
2022-08-14T15:34:44.431Z,97213.00
2022-08-14T15:37:16.785Z,97220.53
2022-08-14T15:39:49.277Z,97219.53
2022-08-14T15:42:23.605Z,97223.06
2022-08-14T15:44:56.752Z,97217.72
2022-08-14T15:47:31.228Z,97221.53
2022-08-14T15:50:07.693Z,97221.84
2022-08-14T15:52:38.876Z,97218.50
2022-08-14T15:55:12.979Z,97222.84
2022-08-14T15:58:02.343Z,97222.75
2022-08-14T16:00:49.372Z,97220.69
2022-08-14T16:03:27.242Z,97211.88
2022-08-14T16:06:11.045Z,97218.19
2022-08-14T16:08:50.443Z,97215.38
2022-08-14T16:11:32.896Z,97212.88
2022-08-14T16:14:06.875Z,97210.88
2022-08-14T16:16:50.548Z,97206.28
2022-08-14T16:19:27.596Z,97205.84
2022-08-14T16:22:59.553Z,97204.38
2022-08-14T16:25:00.456Z,97204.94
2022-08-14T16:27:40.940Z,97203.63
2022-08-14T16:30:25.561Z,97208.59
2022-08-14T16:32:59.207Z,97203.72
2022-08-14T16:35:42.448Z,97200.66
2022-08-14T16:38:45.425Z,97204.78
2022-08-14T16:41:21.933Z,97199.19
2022-08-14T16:43:59.326Z,97192.34
2022-08-14T16:46:32.574Z,97193.63
2022-08-14T16:49:02.966Z,97192.66
2022-08-14T16:51:34.764Z,97193.47
2022-08-14T16:54:20.738Z,97190.66
2022-08-14T16:57:16.248Z,97191.19
2022-08-14T16:59:52.189Z,97190.41
2022-08-14T17:02:38.947Z,97187.69
2022-08-14T17:05:29.009Z,97186.44
2022-08-14T17:08:32.310Z,97184.75
2022-08-14T17:11:11.003Z,97182.59
2022-08-14T17:13:59.774Z,97183.00
2022-08-14T17:16:35.717Z,97183.47
2022-08-14T17:19:13.877Z,97187.75
2022-08-14T17:21:47.412Z,97179.94
2022-08-14T17:24:56.879Z,97183.56
2022-08-14T17:27:18.283Z,97183.41
2022-08-14T17:29:56.348Z,97177.38
2022-08-14T17:32:44.205Z,97178.97
2022-08-14T17:35:57.644Z,97167.31
2022-08-14T17:41:33.069Z,97168.69
2022-08-14T17:44:21.953Z,97175.09
2022-08-14T17:46:55.245Z,97171.81
2022-08-14T17:49:32.057Z,97171.34
2022-08-14T17:52:16.663Z,97169.84
2022-08-14T17:54:53.042Z,97180.88
2022-08-14T17:57:40.648Z,97176.06
2022-08-14T18:00:17.927Z,97185.75
2022-08-14T18:02:51.363Z,97180.69
2022-08-14T18:06:07.327Z,97175.34
2022-08-14T18:08:34.272Z,97180.22
2022-08-14T18:11:05.383Z,97174.63
2022-08-14T18:13:51.664Z,97177.16
2022-08-14T18:16:30.394Z,97177.41
2022-08-14T18:19:02.746Z,97183.28
2022-08-14T18:21:56.323Z,97185.31
2022-08-14T18:24:29.413Z,97192.22
2022-08-14T18:27:09.056Z,97192.72
2022-08-14T18:29:54.780Z,97197.56
2022-08-14T18:32:55.144Z,97196.28
2022-08-14T18:35:56.582Z,97200.34
2022-08-14T18:38:25.837Z,97196.78
2022-08-14T18:41:36.778Z,97198.56
2022-08-14T18:44:11.077Z,97201.56
2022-08-14T18:47:15.056Z,97200.81
2022-08-14T18:50:26.007Z,97195.69
2022-08-14T18:53:08.971Z,97207.69
2022-08-14T18:55:53.813Z,97223.69
2022-08-14T18:58:27.714Z,97224.44
2022-08-14T19:01:02.179Z,97221.63
2022-08-14T19:03:49.070Z,97233.81
2022-08-14T19:06:21.898Z,97234.56
2022-08-14T19:08:55.757Z,97236.59
2022-08-14T19:11:50.416Z,97227.91
2022-08-14T19:14:50.571Z,97235.00
2022-08-14T19:18:10.576Z,97240.56
2022-08-14T19:20:53.341Z,97236.19
2022-08-14T19:23:42.059Z,97238.44
2022-08-14T19:26:33.758Z,97246.81
2022-08-14T19:29:23.624Z,97241.44
2022-08-14T19:31:59.087Z,97238.84
2022-08-14T19:34:47.967Z,97244.69
2022-08-14T19:37:47.960Z,97247.69
2022-08-14T19:40:34.290Z,97244.88
2022-08-14T19:43:08.911Z,97253.47
2022-08-14T19:45:40.411Z,97243.00
2022-08-14T19:48:17.159Z,97244.72
2022-08-14T19:50:48.312Z,97253.34
2022-08-14T19:53:18.852Z,97250.75
2022-08-14T19:56:02.180Z,97257.53
2022-08-14T19:58:54.413Z,97257.00
2022-08-14T20:01:37.283Z,97262.81
2022-08-14T20:04:44.929Z,97258.50
2022-08-14T20:07:04.227Z,97264.50
2022-08-14T20:11:10.997Z,97261.38
2022-08-14T20:12:36.622Z,97263.28
2022-08-14T20:15:47.212Z,97266.03
2022-08-14T20:18:45.865Z,97263.78
2022-08-14T20:21:10.344Z,97272.63
2022-08-14T20:23:41.148Z,97258.63
2022-08-14T20:26:32.050Z,97262.91
2022-08-14T20:29:06.921Z,97270.59
2022-08-14T20:31:38.321Z,97269.50
2022-08-14T20:34:24.103Z,97263.63
2022-08-14T20:37:09.776Z,97256.78
2022-08-14T20:39:54.708Z,97270.47
2022-08-14T20:42:38.714Z,97268.94
2022-08-14T20:45:24.304Z,97263.63
2022-08-14T20:48:01.177Z,97277.59
2022-08-14T20:50:32.750Z,97273.31
2022-08-14T20:53:17.191Z,97274.09
2022-08-14T20:55:47.040Z,97283.19
2022-08-14T20:58:44.172Z,97288.91
2022-08-14T21:01:36.005Z,97289.19
2022-08-14T21:04:22.842Z,97286.50
2022-08-14T21:07:25.489Z,97298.53
2022-08-14T21:10:06.118Z,97302.84
2022-08-14T21:12:37.507Z,97321.84
2022-08-14T21:15:27.664Z,97315.97
2022-08-14T21:18:05.492Z,97314.06
2022-08-14T21:20:37.041Z,97311.31
2022-08-14T21:23:07.163Z,97315.88
2022-08-14T21:25:38.428Z,97310.78
2022-08-14T21:28:29.592Z,97304.53
2022-08-14T21:31:00.636Z,97299.16
2022-08-14T21:33:34.431Z,97302.78
2022-08-14T21:36:08.015Z,97302.63
2022-08-14T21:38:42.271Z,97301.34
2022-08-14T21:41:43.353Z,97300.13
2022-08-14T21:44:20.607Z,97305.94
2022-08-14T21:46:53.439Z,97305.34
2022-08-14T21:49:38.212Z,97299.19
2022-08-14T21:52:51.959Z,97301.56
2022-08-14T21:55:09.677Z,97304.44
2022-08-14T21:58:46.421Z,97307.94
2022-08-14T22:00:42.241Z,97311.63
2022-08-14T22:03:17.433Z,97313.44
2022-08-14T22:05:52.453Z,97316.09
2022-08-14T22:08:26.882Z,97310.34
2022-08-14T22:10:57.647Z,97320.50
2022-08-14T22:13:32.159Z,97315.50
2022-08-14T22:16:03.025Z,97316.75
2022-08-14T22:18:34.052Z,97317.44
2022-08-14T22:21:08.207Z,97321.50
2022-08-14T22:23:46.677Z,97323.22
2022-08-14T22:26:22.340Z,97316.31
2022-08-14T22:29:00.566Z,97318.06
2022-08-14T22:31:35.300Z,97322.03
2022-08-14T22:34:09.304Z,97316.88
2022-08-14T22:36:51.548Z,97324.19
2022-08-14T22:40:17.235Z,97318.13
2022-08-14T22:42:21.005Z,97320.50
2022-08-14T22:44:56.450Z,97318.69
2022-08-14T22:47:40.205Z,97314.38
2022-08-14T22:50:31.283Z,97314.66
2022-08-14T22:53:06.850Z,97317.16
2022-08-14T22:55:40.432Z,97317.38
2022-08-14T22:58:10.279Z,97317.56
2022-08-14T23:00:47.721Z,97320.34
2022-08-14T23:03:19.703Z,97324.59
2022-08-14T23:05:52.573Z,97330.41
2022-08-14T23:09:00.129Z,97322.72
2022-08-14T23:11:15.521Z,97321.41
2022-08-14T23:13:46.514Z,97324.69
2022-08-14T23:16:20.202Z,97325.94
2022-08-14T23:18:53.458Z,97325.56
2022-08-14T23:21:25.321Z,97319.72
2022-08-14T23:24:03.091Z,97314.06
2022-08-14T23:26:48.104Z,97320.09
2022-08-14T23:29:21.606Z,97322.81
2022-08-14T23:31:52.138Z,97322.50
2022-08-14T23:34:24.852Z,97322.91
2022-08-14T23:37:03.908Z,97326.00
2022-08-14T23:39:39.252Z,97328.78
2022-08-14T23:42:12.520Z,97328.22
2022-08-14T23:44:49.073Z,97332.34
2022-08-14T23:47:26.303Z,97326.50
2022-08-14T23:50:03.708Z,97324.00
2022-08-14T23:52:57.491Z,97330.06
2022-08-14T23:55:33.956Z,97321.13
2022-08-14T23:58:03.798Z,97319.28
